Time;durP1;ratioP1;P1;durP2;ratioP2;P2;SDS_P1;SDS_P2;PMS_P1;PMS_P2;Temp;Humidity;BMP_temperature;BMP_pressure;BME280_temperature;BME280_humidity;BME280_pressure;Samples;Min_cycle;Max_cycle;Signal;HPM_P1;HPM_P2
2024/02/10 00:00:22;;;;;;;14.40;10.97;;;10.70;99.90;;;12.44;66.05;95065.66;5026820;28;20045;-68
2024/02/10 00:02:51;;;;;;;15.07;11.20;;;10.70;99.90;;;12.41;66.29;95066.94;5010291;28;20046;-68
2024/02/10 00:05:21;;;;;;;17.00;12.40;;;10.60;99.90;;;12.38;66.11;95058.59;5026604;28;20056;-67
2024/02/10 00:07:52;;;;;;;15.47;11.87;;;10.60;99.90;;;12.33;66.24;95069.16;5026549;28;20045;-67
2024/02/10 00:10:24;;;;;;;19.03;13.23;;;10.50;99.90;;;12.29;66.20;95063.50;5027352;28;20052;-67
2024/02/10 00:12:57;;;;;;;19.97;12.77;;;10.40;99.90;;;12.26;66.48;95065.81;5027459;28;20048;-67
2024/02/10 00:15:28;;;;;;;16.80;12.50;;;10.40;99.90;;;12.22;66.63;95070.81;5026215;28;20049;-67
2024/02/10 00:17:56;;;;;;;19.40;12.43;;;10.30;99.90;;;12.21;66.45;95072.69;5026518;28;20038;-67
2024/02/10 00:20:25;;;;;;;15.47;12.07;;;10.40;99.90;;;12.20;66.49;95067.56;5026675;28;20049;-67
2024/02/10 00:22:54;;;;;;;17.57;11.97;;;10.40;99.90;;;12.22;66.62;95068.16;5026630;28;20033;-67
2024/02/10 00:25:23;;;;;;;15.60;12.53;;;10.40;99.90;;;12.19;66.48;95058.75;5026789;28;20115;-67
2024/02/10 00:27:53;;;;;;;13.67;11.03;;;10.30;99.90;;;12.19;66.48;95063.25;5026580;28;20059;-67
2024/02/10 00:30:23;;;;;;;14.40;10.83;;;10.30;99.90;;;12.17;66.68;95057.34;5026354;28;20251;-67
2024/02/10 00:32:51;;;;;;;16.70;11.47;;;10.30;99.90;;;12.14;66.81;95063.97;5026854;28;20068;-67
2024/02/10 00:35:23;;;;;;;16.80;11.93;;;10.30;99.90;;;12.14;66.63;95063.19;5025147;28;20041;-67
2024/02/10 00:37:56;;;;;;;17.13;12.03;;;10.30;99.90;;;12.11;66.80;95059.09;5027626;28;20264;-67
2024/02/10 00:40:24;;;;;;;16.67;12.30;;;10.30;99.90;;;12.12;66.82;95058.06;5025906;28;20150;-67
2024/02/10 00:42:52;;;;;;;17.83;12.00;;;10.30;99.90;;;12.12;66.89;95050.06;5027300;28;20653;-67
2024/02/10 00:45:21;;;;;;;19.07;14.03;;;10.40;99.90;;;12.13;67.07;95056.22;5025223;28;20049;-67
2024/02/10 00:47:50;;;;;;;16.53;11.77;;;10.40;99.90;;;12.13;66.90;95058.88;5024733;28;20433;-67
2024/02/10 00:50:18;;;;;;;14.43;10.50;;;10.40;99.90;;;12.12;67.08;95066.06;5024570;28;20041;-67
2024/02/10 00:52:49;;;;;;;14.93;10.63;;;10.40;99.90;;;12.13;67.10;95066.88;5025222;28;20053;-67
2024/02/10 00:55:18;;;;;;;16.40;11.73;;;10.40;99.90;;;12.13;66.92;95061.53;5024856;28;20042;-67
2024/02/10 00:57:46;;;;;;;17.77;11.53;;;10.40;99.90;;;12.17;66.96;95062.69;5025555;28;20046;-67
2024/02/10 01:00:17;;;;;;;14.57;11.53;;;10.40;99.90;;;12.19;67.05;95065.94;5026963;28;20412;-67
2024/02/10 01:02:46;;;;;;;14.83;10.47;;;10.40;99.90;;;12.20;67.08;95056.91;5026355;28;20057;-67
2024/02/10 01:05:14;;;;;;;15.20;11.50;;;10.40;99.90;;;12.18;66.91;95053.66;5024822;28;20397;-67
2024/02/10 01:07:44;;;;;;;16.33;10.93;;;10.40;99.90;;;12.17;66.99;95047.53;5026695;28;20041;-67
2024/02/10 01:10:11;;;;;;;16.30;10.70;;;10.40;99.90;;;12.19;67.32;95047.25;5026662;28;20061;-67
2024/02/10 01:12:39;;;;;;;17.03;9.40;;;10.50;99.90;;;12.22;67.08;95041.47;5026021;28;20421;-67
2024/02/10 01:15:08;;;;;;;13.93;9.07;;;10.50;99.90;;;12.22;66.96;95046.81;5025658;28;20042;-68
2024/02/10 01:17:35;;;;;;;12.57;7.67;;;10.50;99.90;;;12.22;66.74;95044.13;5025281;28;20043;-68
2024/02/10 01:20:04;;;;;;;11.17;7.63;;;10.50;99.90;;;12.21;66.70;95035.34;5025941;28;20046;-67
2024/02/10 01:22:31;;;;;;;13.70;7.80;;;10.50;99.90;;;12.24;66.98;95035.91;5025580;28;20451;-67
2024/02/10 01:24:59;;;;;;;10.07;7.57;;;10.50;99.90;;;12.24;66.82;95030.56;5024228;28;20508;-68
2024/02/10 01:27:27;;;;;;;13.27;7.83;;;10.60;99.90;;;12.24;66.90;95020.72;5026125;28;20049;-68
2024/02/10 01:29:56;;;;;;;10.60;7.10;;;10.60;99.90;;;12.27;66.68;95019.41;5023885;28;20053;-67
2024/02/10 01:32:24;;;;;;;10.93;7.60;;;10.60;99.90;;;12.26;66.83;95017.81;5023441;28;20089;-67
2024/02/10 01:34:53;;;;;;;11.07;7.25;;;10.60;99.90;;;12.25;66.68;95016.97;5025635;28;20041;-67
2024/02/10 01:37:22;;;;;;;11.10;8.00;;;10.70;99.90;;;12.28;66.91;95015.72;5008726;28;20037;-67
2024/02/10 01:39:53;;;;;;;10.33;7.83;;;10.70;99.90;;;12.28;66.83;95000.50;5008349;28;20046;-66
2024/02/10 01:42:37;;;;;;;12.90;7.33;;;10.70;99.90;;;12.29;66.75;95001.31;5024493;28;20041;-67
2024/02/10 01:45:08;;;;;;;11.15;7.93;;;10.80;99.90;;;12.28;66.72;94999.72;5024894;28;20041;-66
2024/02/10 01:47:37;;;;;;;9.27;6.43;;;10.70;99.90;;;12.27;66.48;94995.41;5008437;28;20149;-66
2024/02/10 01:50:06;;;;;;;12.77;8.17;;;10.70;99.90;;;12.27;66.68;94996.25;5024243;28;21078;-66
2024/02/10 01:52:38;;;;;;;12.50;8.73;;;10.70;99.90;;;12.28;66.68;94991.72;5025924;28;20041;-67
2024/02/10 01:55:09;;;;;;;11.20;7.70;;;10.70;99.90;;;12.25;66.54;94984.16;5023885;28;20053;-66
2024/02/10 01:57:39;;;;;;;11.73;7.20;;;10.70;99.90;;;12.28;66.67;94978.38;5024420;28;20054;-67
2024/02/10 02:00:13;;;;;;;11.00;7.67;;;10.70;99.90;;;12.29;66.49;94977.31;5024233;28;20508;-66
2024/02/10 02:02:41;;;;;;;12.47;6.80;;;10.70;99.90;;;12.29;66.43;94978.13;5024427;28;20045;-66
2024/02/10 02:05:08;;;;;;;8.13;5.83;;;10.70;99.90;;;12.28;66.36;94965.84;5024031;28;20041;-67
2024/02/10 02:07:38;;;;;;;8.00;6.10;;;10.70;99.90;;;12.33;66.56;94975.78;5024294;28;20428;-67
2024/02/10 02:10:08;;;;;;;8.67;6.37;;;10.70;99.90;;;12.33;66.31;94968.63;5025417;28;20132;-67
2024/02/10 02:12:50;;;;;;;8.83;6.07;;;10.70;99.90;;;12.34;66.23;94966.75;5024129;28;20041;-66
2024/02/10 02:15:18;;;;;;;9.37;6.83;;;10.70;99.90;;;12.33;66.15;94968.63;5024212;28;20042;-67
2024/02/10 02:17:51;;;;;;;10.00;6.73;;;10.70;99.90;;;12.31;66.22;94965.38;5025981;28;20413;-67
2024/02/10 02:20:20;;;;;;;12.30;7.45;;;10.60;99.90;;;12.31;66.34;94962.72;5024299;28;20049;-66
2024/02/10 02:22:55;;;;;;;9.80;7.27;;;10.60;99.90;;;12.30;66.08;94968.28;5025402;28;20041;-67
2024/02/10 02:25:23;;;;;;;12.53;7.60;;;10.60;99.90;;;12.27;66.09;94963.41;5023639;28;20413;-67
2024/02/10 02:27:51;;;;;;;11.23;7.43;;;10.50;99.90;;;12.27;66.09;94950.91;5024263;28;20505;-66
2024/02/10 02:30:18;;;;;;;10.57;7.40;;;10.50;99.90;;;12.27;66.27;94960.72;5025678;28;20050;-67
2024/02/10 02:32:47;;;;;;;11.70;7.90;;;10.50;99.90;;;12.28;66.08;94952.50;5028352;28;20527;-67
2024/02/10 02:35:15;;;;;;;11.17;8.73;;;10.50;99.90;;;12.28;66.30;94954.38;5027594;28;20049;-67
2024/02/10 02:37:43;;;;;;;8.83;6.60;;;10.50;99.90;;;12.24;66.12;94943.34;5029767;28;20060;-67
2024/02/10 02:40:16;;;;;;;11.50;8.50;;;10.40;99.90;;;12.23;66.18;94941.72;5029152;28;20041;-67
2024/02/10 02:42:46;;;;;;;8.20;6.95;;;10.40;99.90;;;12.24;66.25;94937.22;5027882;28;20103;-67
2024/02/10 02:45:13;;;;;;;10.30;7.93;;;10.40;99.90;;;12.22;66.03;94937.44;5028150;28;20045;-67
2024/02/10 02:47:41;;;;;;;11.50;7.67;;;10.50;99.90;;;12.21;66.16;94923.31;5028013;28;20464;-67
2024/02/10 02:50:09;;;;;;;12.17;8.13;;;10.50;99.90;;;12.19;66.34;94925.41;5026992;28;20049;-67
2024/02/10 02:52:38;;;;;;;10.67;7.03;;;10.50;99.90;;;12.19;66.40;94922.75;5026996;28;20053;-67
2024/02/10 02:55:11;;;;;;;9.17;7.03;;;10.50;99.90;;;12.23;66.46;94916.91;5027418;28;20393;-67
2024/02/10 02:57:39;;;;;;;8.75;6.97;;;10.50;99.90;;;12.25;66.22;94920.16;5028914;28;20038;-67
2024/02/10 03:00:08;;;;;;;8.37;6.83;;;10.50;99.90;;;12.26;66.42;94919.91;5028532;28;20044;-67
2024/02/10 03:02:41;;;;;;;7.87;5.97;;;10.50;99.90;;;12.27;66.23;94910.06;5028975;28;20516;-67
2024/02/10 03:05:10;;;;;;;6.03;4.63;;;10.50;99.90;;;12.25;66.17;94910.28;5028170;28;20049;-67
2024/02/10 03:07:45;;;;;;;6.00;4.67;;;10.50;99.90;;;12.25;66.05;94899.59;5028503;28;21074;-68
2024/02/10 03:10:15;;;;;;;6.40;5.07;;;10.50;99.90;;;12.23;65.96;94900.91;5027444;28;20544;-67
2024/02/10 03:12:46;;;;;;;6.27;4.30;;;10.50;99.90;;;12.21;65.65;94898.47;5027494;28;20045;-67
2024/02/10 03:15:14;;;;;;;10.20;7.13;;;10.50;99.90;;;12.20;65.80;94900.34;5026865;28;20042;-67
2024/02/10 03:17:46;;;;;;;16.43;10.37;;;10.50;99.90;;;12.19;66.28;94889.91;5027107;28;20505;-68
2024/02/10 03:20:14;;;;;;;13.90;9.37;;;10.50;99.90;;;12.17;65.86;94897.34;5026898;28;20044;-67
2024/02/10 03:22:44;;;;;;;15.43;9.43;;;10.50;99.90;;;12.16;65.92;94891.19;5027352;28;20568;-68
2024/02/10 03:25:14;;;;;;;11.57;8.30;;;10.40;99.90;;;12.13;65.67;94897.00;5028041;28;20080;-67
2024/02/10 03:27:42;;;;;;;17.37;10.83;;;10.40;99.90;;;12.13;65.92;94894.31;5028827;28;20069;-67
2024/02/10 03:30:13;;;;;;;16.60;11.13;;;10.40;99.90;;;12.11;65.87;94892.97;5026331;28;20061;-67
2024/02/10 03:32:43;;;;;;;19.30;12.43;;;10.40;99.90;;;12.09;66.04;94884.38;5027032;28;20048;-68
2024/02/10 03:35:11;;;;;;;17.03;10.13;;;10.40;99.90;;;12.08;65.69;94891.59;5025215;28;20428;-67
2024/02/10 03:37:39;;;;;;;15.33;10.43;;;10.30;99.90;;;12.05;65.76;94889.38;5028033;28;20045;-67
2024/02/10 03:40:09;;;;;;;12.93;9.03;;;10.30;99.90;;;12.02;65.85;94877.34;5026012;28;20050;-67
2024/02/10 03:42:37;;;;;;;16.47;11.40;;;10.20;99.90;;;11.98;65.79;94884.19;5027789;28;20076;-67
2024/02/10 03:45:05;;;;;;;23.67;14.03;;;10.20;99.90;;;11.95;65.89;94887.31;5027655;28;20053;-67
2024/02/10 03:47:33;;;;;;;22.47;13.53;;;10.10;99.90;;;11.93;65.98;94883.28;4993927;28;20046;-67
2024/02/10 03:50:01;;;;;;;19.30;13.10;;;10.10;99.90;;;11.90;65.90;94881.88;5027958;28;20045;-67
2024/02/10 03:52:30;;;;;;;16.77;11.43;;;10.10;99.90;;;11.88;66.01;94878.63;5026628;28;20045;-67
2024/02/10 03:54:58;;;;;;;16.27;10.67;;;10.10;99.90;;;11.85;66.00;94878.31;5027344;28;20037;-67
2024/02/10 03:57:26;;;;;;;15.10;10.43;;;10.00;99.90;;;11.78;65.75;94881.88;5027361;28;20373;-68
2024/02/10 03:59:55;;;;;;;13.20;10.53;;;9.90;99.90;;;11.74;66.12;94879.94;5027776;28;20049;-68
2024/02/10 04:02:22;;;;;;;13.27;10.37;;;9.80;99.90;;;11.69;65.70;94883.31;5027660;28;20486;-67
2024/02/10 04:04:50;;;;;;;15.13;10.20;;;9.80;99.90;;;11.65;65.94;94884.84;5027667;28;20049;-68
2024/02/10 04:07:20;;;;;;;13.10;9.73;;;9.80;99.90;;;11.62;66.33;94879.97;5026209;28;20045;-67
2024/02/10 04:09:48;;;;;;;13.43;9.83;;;9.80;99.90;;;11.60;66.35;94884.72;5026861;28;20048;-67
2024/02/10 04:12:15;;;;;;;16.10;10.23;;;9.80;99.90;;;11.60;66.32;94882.88;5026250;28;20053;-67
2024/02/10 04:14:44;;;;;;;19.47;13.13;;;9.80;99.90;;;11.62;66.36;94882.63;5026984;28;20037;-68
2024/02/10 04:17:11;;;;;;;17.03;10.87;;;9.80;99.90;;;11.60;66.24;94882.06;5026122;28;20614;-67
2024/02/10 04:19:39;;;;;;;15.47;10.83;;;9.80;99.90;;;11.58;66.34;94886.81;5027192;28;20521;-67
2024/02/10 04:22:07;;;;;;;20.53;12.53;;;9.80;99.90;;;11.55;66.11;94889.94;5026289;28;20049;-67
2024/02/10 04:24:34;;;;;;;55.93;14.53;;;9.70;99.90;;;11.51;66.03;94894.13;5026909;28;20390;-67
2024/02/10 04:27:02;;;;;;;20.33;13.80;;;9.60;99.90;;;11.45;66.21;94890.53;5026882;28;20049;-67
2024/02/10 04:29:31;;;;;;;20.00;12.43;;;9.60;99.90;;;11.43;66.43;94895.28;5009095;28;20068;-68
2024/02/10 04:31:59;;;;;;;20.10;12.53;;;9.60;99.90;;;11.43;66.64;94900.63;5024338;28;20053;-67
2024/02/10 04:34:30;;;;;;;20.10;13.60;;;9.60;99.90;;;11.42;66.61;94894.50;5026764;28;20492;-68
2024/02/10 04:36:58;;;;;;;22.97;13.83;;;9.60;99.90;;;11.46;66.98;94899.34;5025900;28;20041;-68
2024/02/10 04:39:27;;;;;;;30.23;14.60;;;9.70;99.90;;;11.46;66.91;94899.34;5027121;28;20051;-68
2024/02/10 04:41:54;;;;;;;28.53;13.17;;;9.70;99.90;;;11.49;66.95;94896.22;5027138;28;20056;-68
2024/02/10 04:44:22;;;;;;;19.97;12.70;;;9.80;99.90;;;11.50;67.36;94896.00;5026457;28;20374;-68
2024/02/10 04:46:50;;;;;;;41.93;13.50;;;9.90;99.90;;;11.52;67.05;94899.22;5024767;28;20038;-68
2024/02/10 04:49:18;;;;;;;28.80;11.93;;;9.90;99.90;;;11.51;67.02;94894.94;5027215;28;20504;-68
2024/02/10 04:51:47;;;;;;;57.83;16.07;;;9.80;99.90;;;11.47;67.52;94892.97;5024780;28;20045;-69
2024/02/10 04:54:14;;;;;;;67.17;14.83;;;9.90;99.90;;;11.47;67.09;94899.09;5025063;28;20417;-68
2024/02/10 04:56:42;;;;;;;62.47;13.20;;;9.80;99.90;;;11.45;66.91;94895.88;5026033;28;20045;-68
2024/02/10 04:59:17;;;;;;;71.93;11.63;;;9.70;99.90;;;11.42;66.94;94897.16;5026297;28;20057;-68
2024/02/10 05:01:45;;;;;;;40.27;11.00;;;9.60;99.90;;;11.37;66.85;94904.22;5026928;28;20068;-68
2024/02/10 05:04:14;;;;;;;62.27;10.73;;;9.50;99.90;;;11.32;67.02;94902.25;5026044;28;20049;-69
2024/02/10 05:06:45;;;;;;;26.43;10.67;;;9.40;99.90;;;11.29;66.99;94899.25;5025606;28;20041;-69
2024/02/10 05:09:13;;;;;;;23.17;12.07;;;9.40;99.90;;;11.27;67.24;94888.81;5026466;28;20500;-68
2024/02/10 05:11:41;;;;;;;36.07;16.00;;;9.50;99.90;;;11.26;66.97;94892.50;5024943;28;20433;-68
2024/02/10 05:14:10;;;;;;;34.57;19.30;;;9.50;99.90;;;11.26;66.91;94894.38;5024652;28;20063;-68
2024/02/10 05:16:38;;;;;;;37.90;21.87;;;9.50;99.90;;;11.25;66.71;94884.78;5005775;28;20045;-68
2024/02/10 05:19:06;;;;;;;42.23;16.63;;;9.40;99.90;;;11.23;66.95;94893.00;5024821;28;20501;-68
2024/02/10 05:21:37;;;;;;;35.47;16.60;;;9.40;99.90;;;11.23;66.86;94895.66;5025192;28;20042;-68
2024/02/10 05:24:12;;;;;;;39.40;18.40;;;9.40;99.90;;;11.24;67.05;94899.94;5025946;28;20065;-69
2024/02/10 05:26:42;;;;;;;42.83;16.87;;;9.40;99.90;;;11.24;67.04;94902.59;5024425;28;20049;-68
2024/02/10 05:29:10;;;;;;;40.73;15.57;;;9.40;99.90;;;11.23;66.92;94898.31;5026701;28;20421;-68
2024/02/10 05:31:40;;;;;;;82.63;14.93;;;9.40;99.90;;;11.23;67.28;94891.13;5008148;28;20049;-68
2024/02/10 05:34:14;;;;;;;24.10;10.17;;;9.40;99.90;;;11.20;66.68;94890.78;5024108;28;20076;-68
2024/02/10 05:36:42;;;;;;;19.13;9.20;;;9.40;99.90;;;11.11;66.62;94886.84;5023324;28;20053;-68
2024/02/10 05:39:10;;;;;;;24.77;10.93;;;9.30;99.90;;;11.01;66.78;94882.94;5025970;28;20037;-68
2024/02/10 05:41:40;;;;;;;17.17;9.93;;;9.10;99.90;;;10.96;66.89;94882.81;5026201;28;20054;-68
2024/02/10 05:44:12;;;;;;;19.37;10.70;;;9.10;99.90;;;10.92;66.52;94881.66;5025120;28;20045;-68
2024/02/10 05:46:44;;;;;;;12.77;8.90;;;9.10;99.90;;;10.89;67.04;94873.31;5023261;28;20053;-68
2024/02/10 05:49:12;;;;;;;15.50;9.43;;;9.00;99.90;;;10.88;67.02;94877.84;5024795;28;20547;-67
2024/02/10 05:51:40;;;;;;;13.73;9.47;;;9.00;99.90;;;10.85;66.66;94870.28;5023501;28;20045;-68
2024/02/10 05:54:07;;;;;;;11.97;8.93;;;9.00;99.90;;;10.89;66.85;94876.78;5022456;28;20030;-68
2024/02/10 05:56:35;;;;;;;13.33;10.23;;;9.00;99.90;;;10.89;66.97;94876.78;5023027;28;20041;-68
2024/02/10 05:59:06;;;;;;;15.47;12.50;;;9.10;99.90;;;10.90;67.02;94874.94;5025773;28;20044;-68
2024/02/10 06:01:35;;;;;;;15.97;10.90;;;9.10;99.90;;;10.89;66.79;94879.44;5025882;28;20038;-68
2024/02/10 06:04:09;;;;;;;15.10;10.87;;;9.00;99.90;;;10.86;66.82;94871.09;5024032;28;20441;-68
2024/02/10 06:06:40;;;;;;;14.63;10.30;;;9.00;99.90;;;10.84;66.67;94874.81;5028480;28;20057;-68
2024/02/10 06:09:08;;;;;;;13.77;10.37;;;9.00;99.90;;;10.86;66.55;94879.91;5029923;28;20041;-68
2024/02/10 06:11:36;;;;;;;12.37;9.83;;;9.10;99.90;;;10.87;66.74;94880.72;5028037;28;20050;-69
2024/02/10 06:14:07;;;;;;;14.17;11.10;;;9.10;99.90;;;10.87;66.78;94883.38;5027901;28;20040;-68
2024/02/10 06:16:35;;;;;;;11.67;9.27;;;9.10;99.90;;;10.88;66.87;94893.00;5028837;28;20049;-68
2024/02/10 06:19:04;;;;;;;13.03;9.93;;;9.10;99.90;;;10.89;66.53;94889.28;5029523;28;20049;-68
2024/02/10 06:21:33;;;;;;;15.50;10.90;;;9.10;99.90;;;10.87;66.71;94892.16;5029295;28;20309;-68
2024/02/10 06:24:01;;;;;;;13.90;9.67;;;9.10;99.90;;;10.83;66.77;94899.00;5027836;28;20542;-69
2024/02/10 06:26:30;;;;;;;15.57;10.30;;;9.00;99.90;;;10.78;66.20;94901.56;5028170;28;20045;-69
2024/02/10 06:28:58;;;;;;;15.50;9.63;;;8.90;99.90;;;10.72;66.82;94897.13;5029461;28;20041;-68
2024/02/10 06:31:26;;;;;;;11.53;8.70;;;8.80;99.90;;;10.69;66.46;94906.38;5028113;28;20493;-68
2024/02/10 06:33:54;;;;;;;11.03;8.37;;;8.80;99.90;;;10.64;66.67;94898.25;5028979;28;20045;-68
2024/02/10 06:36:22;;;;;;;11.23;8.47;;;8.70;99.90;;;10.65;66.45;94894.56;5026120;28;20052;-68
2024/02/10 06:38:51;;;;;;;11.80;8.00;;;8.80;99.90;;;10.68;66.91;94894.09;5029062;28;20033;-68
2024/02/10 06:41:19;;;;;;;10.50;8.23;;;8.90;99.90;;;10.71;66.63;94900.84;5029237;28;20041;-68
2024/02/10 06:43:46;;;;;;;11.63;8.60;;;8.90;99.90;;;10.70;66.61;94889.38;5028263;28;20045;-66
2024/02/10 06:46:16;;;;;;;9.33;7.77;;;8.80;99.90;;;10.68;67.26;94901.28;5027786;28;20357;-68
2024/02/10 06:48:46;;;;;;;9.90;7.97;;;8.80;99.90;;;10.66;66.69;94893.53;5028387;28;20056;-63
2024/02/10 06:51:14;;;;;;;10.07;7.50;;;8.80;99.90;;;10.71;67.10;94912.28;5028358;28;20049;-64
2024/02/10 06:53:42;;;;;;;12.83;8.17;;;8.90;99.90;;;10.72;67.13;94905.94;5027555;28;20048;-68
2024/02/10 06:56:10;;;;;;;11.50;8.53;;;8.90;99.90;;;10.71;66.90;94900.84;5026683;28;20042;-66
2024/02/10 06:58:39;;;;;;;11.57;8.37;;;8.90;99.90;;;10.72;67.12;94892.63;5027431;28;20061;-66
2024/02/10 07:01:08;;;;;;;10.97;8.80;;;8.90;99.90;;;10.75;67.03;94883.38;5029055;28;20060;-69
2024/02/10 07:03:38;;;;;;;11.70;9.30;;;8.90;99.90;;;10.80;66.81;94902.94;5027107;28;20045;-69
2024/02/10 07:06:09;;;;;;;11.57;8.47;;;9.10;99.90;;;10.82;66.95;94895.53;5027696;28;20041;-69
2024/02/10 07:08:40;;;;;;;12.23;8.87;;;9.10;99.90;;;10.84;66.78;94890.78;5028155;28;20058;-68
2024/02/10 07:11:08;;;;;;;12.53;9.60;;;9.10;99.90;;;10.85;67.21;94891.59;5029263;28;20041;-66
2024/02/10 07:13:36;;;;;;;10.67;8.63;;;9.10;99.90;;;10.88;66.98;94896.47;5026913;28;20064;-66
2024/02/10 07:16:05;;;;;;;14.37;10.27;;;9.20;99.90;;;10.91;66.73;94890.66;5026882;28;20154;-70
2024/02/10 07:18:35;;;;;;;12.30;9.33;;;9.20;99.90;;;10.92;66.62;94889.63;5027834;28;20090;-70
2024/02/10 07:21:03;;;;;;;12.40;8.93;;;9.20;99.90;;;10.93;66.71;94885.13;5028475;28;20065;-68
2024/02/10 07:23:31;;;;;;;13.67;9.07;;;9.20;99.90;;;10.94;66.81;94886.75;5026462;28;20061;-68
2024/02/10 07:26:04;;;;;;;14.97;9.63;;;9.20;99.90;;;10.92;66.57;94892.28;5027728;28;20485;-67
2024/02/10 07:28:34;;;;;;;16.05;9.77;;;9.10;99.90;;;10.91;66.83;94885.34;5027988;28;20521;-66
2024/02/10 07:31:02;;;;;;;13.47;9.13;;;9.10;99.90;;;10.91;66.52;94895.97;5025750;28;20053;-67
2024/02/10 07:33:30;;;;;;;13.53;9.43;;;9.10;99.90;;;10.91;66.95;94892.53;5027048;28;20062;-68
2024/02/10 07:36:00;;;;;;;18.53;9.17;;;9.10;99.90;;;10.90;66.71;94896.25;5027061;28;20049;-66
2024/02/10 07:38:27;;;;;;;12.50;8.77;;;9.10;99.90;;;10.89;66.97;94892.75;5027830;28;20041;-66
2024/02/10 07:40:55;;;;;;;12.07;8.77;;;9.20;99.90;;;10.90;66.57;94878.41;5029281;28;20052;-65
2024/02/10 07:43:23;;;;;;;11.57;9.13;;;9.10;99.90;;;10.88;66.70;94879.69;5026954;28;20535;-68
2024/02/10 07:45:52;;;;;;;12.17;8.87;;;9.10;99.90;;;10.91;66.75;94888.00;5028233;28;20045;-65
2024/02/10 07:48:21;;;;;;;13.77;8.83;;;9.10;99.90;;;10.93;66.92;94883.25;5027340;28;20056;-67
2024/02/10 07:50:49;;;;;;;14.63;9.67;;;9.20;99.90;;;10.93;66.81;94885.91;5023995;28;20408;-67
2024/02/10 07:53:17;;;;;;;16.10;10.80;;;9.20;99.90;;;10.95;66.98;94891.00;5024283;28;20059;-67
2024/02/10 07:55:46;;;;;;;17.23;11.30;;;9.20;99.90;;;10.97;66.78;94886.28;5024248;28;20057;-68
2024/02/10 07:58:15;;;;;;;20.67;12.27;;;9.20;99.90;;;11.03;67.42;94885.34;5027470;28;20037;-66
2024/02/10 08:00:44;;;;;;;19.47;12.60;;;9.30;99.90;;;11.09;67.41;94895.09;5027782;28;20049;-71
2024/02/10 08:03:11;;;;;;;21.23;13.73;;;9.40;99.90;;;11.14;67.56;94899.72;5025115;28;20045;-71
2024/02/10 08:05:42;;;;;;;20.33;11.70;;;9.50;99.90;;;11.18;67.34;94895.53;5026413;28;20045;-71
2024/02/10 08:08:10;;;;;;;19.20;12.07;;;9.50;99.90;;;11.19;67.24;94892.66;5026860;28;20494;-69
2024/02/10 08:10:37;;;;;;;21.73;13.10;;;9.50;99.90;;;11.22;67.46;94891.38;5026440;28;20057;-69
2024/02/10 08:13:05;;;;;;;18.53;11.40;;;9.50;99.90;;;11.26;67.81;94886.38;5026820;28;20059;-70
2024/02/10 08:15:33;;;;;;;22.70;12.73;;;9.60;99.90;;;11.25;67.49;94884.78;5026616;28;20045;-70
2024/02/10 08:18:05;;;;;;;22.80;13.20;;;9.50;99.90;;;11.25;67.39;94888.25;5009268;28;20163;-70
2024/02/10 08:20:34;;;;;;;37.33;14.17;;;9.50;99.90;;;11.28;67.71;94885.09;5027497;28;20053;-70
2024/02/10 08:23:02;;;;;;;22.33;13.80;;;9.50;99.90;;;11.29;67.32;94880.59;5026775;28;20053;-70
2024/02/10 08:25:30;;;;;;;24.23;13.63;;;9.60;99.90;;;11.30;67.83;94883.03;5027203;28;20113;-70
2024/02/10 08:27:59;;;;;;;36.30;15.07;;;9.70;99.90;;;11.32;67.58;94878.28;5025742;28;20057;-68
2024/02/10 08:30:27;;;;;;;21.20;13.10;;;9.70;99.90;;;11.38;67.57;94879.19;5027087;28;20056;-68
2024/02/10 08:32:58;;;;;;;24.90;13.50;;;9.70;99.90;;;11.39;67.85;94873.63;5026825;28;20045;-68
2024/02/10 08:35:27;;;;;;;25.40;13.57;;;9.80;99.90;;;11.42;67.86;94873.19;5026048;28;20269;-69
2024/02/10 08:37:55;;;;;;;21.30;12.33;;;9.80;99.90;;;11.45;67.65;94860.44;5024045;28;20053;-71
2024/02/10 08:40:23;;;;;;;24.63;12.90;;;9.80;99.90;;;11.47;67.98;94859.16;5027348;28;20041;-71
2024/02/10 08:42:54;;;;;;;23.37;13.43;;;9.80;99.90;;;11.53;67.76;94854.72;5024732;28;20056;-70
2024/02/10 08:45:21;;;;;;;23.63;13.97;;;9.80;99.90;;;11.56;67.58;94856.94;5021898;28;20049;-70
2024/02/10 08:47:49;;;;;;;23.67;12.80;;;9.80;99.90;;;11.59;67.68;94856.44;5022857;28;20536;-70
2024/02/10 08:50:18;;;;;;;27.13;16.67;;;9.90;99.90;;;11.63;67.67;94860.25;5024676;28;20489;-70
2024/02/10 08:52:47;;;;;;;24.67;15.47;;;9.90;99.90;;;11.65;67.54;94852.88;5022060;28;20616;-69
2024/02/10 08:55:15;;;;;;;33.63;21.30;;;9.90;99.90;;;11.63;67.43;94853.09;5008337;28;20065;-70
2024/02/10 08:57:45;;;;;;;30.00;16.73;;;9.90;99.90;;;11.63;67.52;94861.09;5023686;28;20037;-70
2024/02/10 09:00:19;;;;;;;35.20;15.43;;;9.90;99.90;;;11.62;67.22;94866.66;5025855;28;20041;-69
2024/02/10 09:02:50;;;;;;;32.27;15.83;;;9.90;99.90;;;11.62;67.37;94859.47;5037897;28;20497;-70
2024/02/10 09:05:18;;;;;;;38.93;19.20;;;9.90;99.90;;;11.63;67.52;94857.59;5030969;28;20056;-69
2024/02/10 09:07:46;;;;;;;65.63;20.80;;;9.90;99.90;;;11.66;67.31;94853.66;5029934;28;20056;-70
2024/02/10 09:10:14;;;;;;;32.87;18.77;;;9.90;99.90;;;11.66;67.48;94853.66;5031264;28;20041;-69
2024/02/10 09:12:43;;;;;;;32.30;17.33;;;9.90;99.90;;;11.68;67.47;94857.72;5031062;28;20049;-69
2024/02/10 09:15:11;;;;;;;30.07;18.03;;;9.90;99.90;;;11.72;67.37;94858.84;5030730;28;20044;-69
2024/02/10 09:17:38;;;;;;;29.87;16.70;;;10.00;99.90;;;11.73;67.40;94865.00;5029819;28;20489;-68
2024/02/10 09:20:08;;;;;;;22.40;14.67;;;10.00;99.90;;;11.75;67.30;94865.59;5031174;28;20056;-68
2024/02/10 09:22:36;;;;;;;21.30;13.07;;;10.10;99.90;;;11.75;67.29;94870.91;5029942;28;20042;-69
2024/02/10 09:25:05;;;;;;;26.07;14.00;;;10.00;99.90;;;11.74;67.17;94877.28;5015420;28;20046;-69
2024/02/10 09:27:32;;;;;;;24.30;13.93;;;10.00;99.90;;;11.76;67.45;94875.19;5020850;28;20068;-69
2024/02/10 09:30:00;;;;;;;25.67;13.73;;;10.10;99.90;;;11.77;67.59;94877.63;5022321;28;20049;-69
2024/02/10 09:32:28;;;;;;;51.97;16.33;;;10.10;99.90;;;11.79;67.46;94885.38;5024767;28;20045;-69
2024/02/10 09:34:55;;;;;;;25.93;14.77;;;10.10;99.90;;;11.81;67.31;94880.63;5018871;28;20346;-69
2024/02/10 09:37:23;;;;;;;22.80;14.00;;;10.10;99.90;;;11.80;67.40;94879.81;5020197;28;20045;-69
2024/02/10 09:39:51;;;;;;;23.90;13.27;;;10.10;99.90;;;11.81;67.27;94891.28;5019160;28;20044;-68
2024/02/10 09:42:22;;;;;;;24.23;12.23;;;10.10;99.90;;;11.82;67.39;94895.56;5022844;28;20048;-68
2024/02/10 09:44:49;;;;;;;17.77;12.13;;;10.10;99.90;;;11.80;67.04;94892.31;5022552;28;20060;-69
2024/02/10 09:47:17;;;;;;;19.77;13.07;;;10.10;99.90;;;11.81;67.16;94894.75;5022560;28;20052;-68
2024/02/10 09:49:45;;;;;;;23.47;13.57;;;10.10;99.90;;;11.83;67.43;94892.66;5006957;28;20052;-68
2024/02/10 09:52:13;;;;;;;22.30;12.40;;;10.10;99.90;;;11.82;67.17;94891.06;5022558;28;20489;-69
2024/02/10 09:54:41;;;;;;;21.67;13.10;;;10.00;99.90;;;11.81;66.91;94886.75;5023853;28;20053;-69
2024/02/10 09:57:14;;;;;;;18.83;12.13;;;10.00;99.90;;;11.83;67.29;94882.00;5006555;28;20053;-68
2024/02/10 09:59:42;;;;;;;19.23;13.07;;;10.00;99.90;;;11.85;66.97;94883.63;5023027;28;20068;-68
2024/02/10 10:02:12;;;;;;;20.47;13.50;;;10.00;99.90;;;11.83;67.30;94882.00;5021775;28;20433;-68
2024/02/10 10:04:40;;;;;;;22.83;12.90;;;10.00;99.90;;;11.81;67.23;94878.75;5021594;28;20397;-68
2024/02/10 10:07:10;;;;;;;23.47;14.17;;;10.00;99.90;;;11.85;67.37;94878.31;5021407;28;20336;-69
2024/02/10 10:09:38;;;;;;;24.90;12.83;;;10.00;99.90;;;11.88;67.26;94867.94;5023308;28;20053;-69
2024/02/10 10:12:09;;;;;;;19.93;12.73;;;10.10;99.90;;;11.92;67.34;94876.31;5018924;28;20072;-68
2024/02/10 10:14:40;;;;;;;19.67;11.93;;;10.10;99.90;;;11.95;67.53;94876.66;5022283;28;20064;-69
2024/02/10 10:17:13;;;;;;;18.83;13.33;;;10.20;99.90;;;11.97;67.54;94874.56;5035511;28;20433;-69
2024/02/10 10:19:44;;;;;;;22.80;14.60;;;10.30;99.90;;;12.01;67.43;94870.38;5021400;28;20045;-69